createdAt,value
2023-05-05T00:01:07.458Z,16.80
2023-05-05T00:03:36.546Z,16.90
2023-05-05T00:06:05.955Z,15.30
2023-05-05T00:08:34.692Z,19.60
2023-05-05T00:11:03.462Z,14.70
2023-05-05T00:13:32.310Z,13.90
2023-05-05T00:16:01.065Z,13.50
2023-05-05T00:18:29.818Z,12.70
2023-05-05T00:20:58.381Z,18.00
2023-05-05T00:23:27.146Z,14.90
2023-05-05T00:25:56.088Z,13.90
2023-05-05T00:28:25.402Z,17.90
2023-05-05T00:30:54.128Z,13.40
2023-05-05T00:33:22.694Z,16.20
2023-05-05T00:35:51.878Z,16.00
2023-05-05T00:38:20.776Z,15.50
2023-05-05T00:40:49.461Z,13.00
2023-05-05T00:43:18.321Z,15.50
2023-05-05T00:45:48.157Z,14.10
2023-05-05T00:48:17.981Z,14.60
2023-05-05T00:50:46.840Z,13.20
2023-05-05T00:53:15.790Z,12.10
2023-05-05T00:55:44.587Z,16.00
2023-05-05T00:58:13.711Z,14.40
2023-05-05T01:00:42.250Z,14.50
2023-05-05T01:03:13.227Z,15.30
2023-05-05T01:06:21.064Z,15.00
2023-05-05T01:09:19.669Z,15.00
2023-05-05T01:12:09.327Z,16.90
2023-05-05T01:14:43.452Z,17.70
2023-05-05T01:17:29.398Z,14.40
2023-05-05T01:20:34.876Z,12.50
2023-05-05T01:23:08.768Z,20.50
2023-05-05T01:26:33.612Z,14.00
2023-05-05T01:29:58.758Z,17.60
2023-05-05T01:32:32.074Z,14.80
2023-05-05T01:35:27.431Z,16.80
2023-05-05T01:38:07.124Z,18.30
2023-05-05T01:40:43.809Z,14.30
2023-05-05T01:43:15.493Z,16.00
2023-05-05T01:45:46.852Z,16.60
2023-05-05T01:48:19.942Z,15.80
2023-05-05T01:50:50.581Z,17.60
2023-05-05T01:53:22.108Z,14.80
2023-05-05T01:55:52.728Z,13.70
2023-05-05T01:58:25.563Z,17.30
2023-05-05T02:00:57.044Z,20.40
2023-05-05T02:03:27.037Z,14.70
2023-05-05T02:05:57.545Z,15.30
2023-05-05T02:08:27.079Z,16.30
2023-05-05T02:10:56.671Z,19.20
2023-05-05T02:13:26.302Z,17.90
2023-05-05T02:15:56.237Z,17.00
2023-05-05T02:18:28.652Z,16.80
2023-05-05T02:23:26.040Z,21.20
2023-05-05T02:26:06.644Z,17.10
2023-05-05T02:28:52.340Z,15.10
2023-05-05T02:31:24.345Z,17.20
2023-05-05T02:36:30.013Z,16.70
2023-05-05T02:39:07.181Z,26.60
2023-05-05T02:41:39.558Z,19.70
2023-05-05T02:44:15.977Z,18.60
2023-05-05T02:46:45.777Z,17.50
2023-05-05T02:49:15.764Z,20.90
2023-05-05T02:51:44.760Z,23.60
2023-05-05T02:54:20.860Z,23.20
2023-05-05T02:56:51.625Z,21.40
2023-05-05T02:59:51.117Z,19.80
2023-05-05T03:02:52.355Z,19.90
2023-05-05T03:08:54.958Z,22.20
2023-05-05T03:11:35.483Z,23.80
2023-05-05T03:14:12.636Z,21.50
2023-05-05T03:16:43.973Z,23.00
2023-05-05T03:19:18.309Z,20.60
2023-05-05T03:21:48.323Z,19.70
2023-05-05T03:24:21.495Z,21.40
2023-05-05T03:26:56.435Z,20.70
2023-05-05T03:29:26.941Z,21.60
2023-05-05T03:31:55.902Z,23.60
2023-05-05T03:34:24.746Z,20.10
2023-05-05T03:36:55.626Z,26.10
2023-05-05T03:39:26.509Z,23.10
2023-05-05T03:41:56.231Z,21.10
2023-05-05T03:44:25.742Z,26.80
2023-05-05T03:46:54.837Z,20.90
2023-05-05T03:49:23.856Z,24.00
2023-05-05T03:51:53.533Z,24.70
2023-05-05T03:54:22.123Z,22.80
2023-05-05T03:56:51.739Z,20.30
2023-05-05T03:59:20.495Z,20.10
2023-05-05T04:01:50.314Z,22.00
2023-05-05T04:04:19.609Z,19.10
2023-05-05T04:06:49.473Z,22.70
2023-05-05T04:09:18.197Z,20.90
2023-05-05T04:11:48.256Z,21.20
2023-05-05T04:14:17.657Z,20.80
2023-05-05T04:16:47.505Z,22.80
2023-05-05T04:19:17.807Z,25.60
2023-05-05T04:21:47.182Z,24.20
2023-05-05T04:24:23.315Z,19.60
2023-05-05T04:26:53.526Z,23.40
2023-05-05T04:29:22.654Z,26.50
2023-05-05T04:31:51.717Z,21.60
2023-05-05T04:34:20.456Z,25.20
2023-05-05T04:36:49.323Z,26.00
2023-05-05T04:39:18.244Z,17.00
2023-05-05T04:41:47.399Z,20.20
2023-05-05T04:44:16.226Z,21.80
2023-05-05T04:46:44.934Z,21.50
2023-05-05T04:49:13.684Z,24.80
2023-05-05T04:51:43.350Z,31.60
2023-05-05T04:54:12.486Z,24.80
2023-05-05T04:56:41.404Z,21.40
2023-05-05T04:59:11.373Z,19.10
2023-05-05T05:01:40.142Z,24.20
2023-05-05T05:04:13.263Z,23.60
2023-05-05T05:06:41.852Z,24.30
2023-05-05T05:09:10.538Z,26.30
2023-05-05T05:11:39.559Z,21.60
2023-05-05T05:14:08.414Z,19.40
2023-05-05T05:16:37.219Z,26.10
2023-05-05T05:19:06.243Z,20.20
2023-05-05T05:21:35.287Z,26.30
2023-05-05T05:24:04.587Z,26.50
2023-05-05T05:26:33.422Z,17.60
2023-05-05T05:29:02.129Z,20.70
2023-05-05T05:31:31.517Z,25.00
2023-05-05T05:34:00.402Z,19.10
2023-05-05T05:36:29.264Z,23.90
2023-05-05T05:38:58.234Z,19.80
2023-05-05T05:41:27.445Z,20.80
2023-05-05T05:43:56.638Z,22.10
2023-05-05T05:46:25.467Z,27.80
2023-05-05T05:48:54.529Z,20.20
2023-05-05T05:51:23.520Z,19.00
2023-05-05T05:53:53.373Z,25.00
2023-05-05T05:56:22.118Z,25.40
2023-05-05T05:58:51.634Z,18.90
2023-05-05T06:01:20.766Z,19.30
2023-05-05T06:03:49.531Z,27.70
2023-05-05T06:06:18.670Z,21.00
2023-05-05T06:08:47.357Z,19.60
2023-05-05T06:11:16.191Z,20.80
2023-05-05T06:13:44.933Z,19.30
2023-05-05T06:16:13.722Z,16.50
2023-05-05T06:18:43.357Z,22.90
2023-05-05T06:21:13.401Z,28.80
2023-05-05T06:23:42.501Z,21.40
2023-05-05T06:26:11.315Z,26.10
2023-05-05T06:28:40.255Z,19.90
2023-05-05T06:31:08.875Z,19.30
2023-05-05T06:33:37.490Z,28.50
2023-05-05T06:36:06.411Z,15.90
2023-05-05T06:38:35.007Z,18.40
2023-05-05T06:41:04.009Z,22.00
2023-05-05T06:43:32.537Z,22.80
2023-05-05T06:46:02.498Z,18.20
2023-05-05T06:48:31.328Z,20.50
2023-05-05T06:50:59.963Z,18.40
2023-05-05T06:53:29.233Z,21.20
2023-05-05T06:55:57.806Z,24.30
2023-05-05T06:58:26.806Z,17.50
2023-05-05T07:00:55.617Z,18.60
2023-05-05T07:03:24.345Z,17.40
2023-05-05T07:05:54.977Z,19.70
2023-05-05T07:08:23.740Z,17.90
2023-05-05T07:10:52.369Z,17.60
2023-05-05T07:13:20.880Z,18.50
2023-05-05T07:15:49.902Z,14.70
2023-05-05T07:18:20.487Z,15.10
2023-05-05T07:20:49.223Z,14.10
2023-05-05T07:23:17.891Z,23.40
2023-05-05T07:25:46.905Z,14.20
2023-05-05T07:28:15.549Z,17.40
2023-05-05T07:30:44.140Z,15.90
2023-05-05T07:33:12.942Z,16.60
2023-05-05T07:35:41.691Z,17.10
2023-05-05T07:38:11.012Z,13.50
2023-05-05T07:40:39.957Z,13.90
2023-05-05T07:43:08.661Z,16.30
2023-05-05T07:45:37.241Z,12.00
2023-05-05T07:48:05.974Z,18.20
2023-05-05T07:50:34.556Z,17.90
2023-05-05T07:53:13.889Z,13.70
2023-05-05T07:55:43.452Z,14.20
2023-05-05T07:58:12.264Z,16.30
2023-05-05T08:00:41.044Z,13.60
2023-05-05T08:03:12.037Z,14.50
2023-05-05T08:05:41.002Z,16.00
2023-05-05T08:08:09.709Z,12.30
2023-05-05T08:10:38.349Z,11.20
2023-05-05T08:13:07.062Z,17.50
2023-05-05T08:15:35.827Z,13.60
2023-05-05T08:18:04.598Z,14.00
2023-05-05T08:20:33.097Z,12.70
2023-05-05T08:23:01.730Z,17.40
2023-05-05T08:25:30.478Z,16.60
2023-05-05T08:27:59.149Z,14.00
2023-05-05T08:30:27.766Z,13.60
2023-05-05T08:32:56.700Z,12.00
2023-05-05T08:35:25.539Z,13.10
2023-05-05T08:37:54.517Z,15.60
2023-05-05T08:40:33.143Z,11.10
2023-05-05T08:43:01.880Z,13.60
2023-05-05T08:45:31.416Z,12.90
2023-05-05T08:48:05.594Z,11.00
2023-05-05T08:50:36.211Z,12.60
2023-05-05T08:53:16.678Z,9.10
2023-05-05T08:55:55.552Z,9.20
2023-05-05T08:58:26.937Z,7.00
2023-05-05T09:00:57.035Z,5.90
2023-05-05T09:03:27.115Z,6.10
2023-05-05T09:05:56.326Z,10.10
2023-05-05T09:08:26.082Z,5.60
2023-05-05T09:10:55.693Z,8.40
2023-05-05T09:13:24.166Z,8.00
2023-05-05T09:15:52.893Z,8.40
2023-05-05T09:18:21.534Z,4.00
2023-05-05T09:20:50.143Z,6.10
2023-05-05T09:23:20.529Z,6.20
2023-05-05T09:26:05.237Z,5.20
2023-05-05T09:28:34.695Z,5.90
2023-05-05T09:31:16.388Z,6.30
2023-05-05T09:33:46.527Z,4.50
2023-05-05T09:36:15.432Z,8.20
2023-05-05T09:39:04.905Z,6.80
2023-05-05T09:41:47.059Z,6.10
2023-05-05T09:44:16.402Z,5.70
2023-05-05T09:46:55.399Z,5.80
2023-05-05T09:49:25.693Z,10.50
2023-05-05T09:51:55.705Z,8.00
2023-05-05T09:54:27.613Z,10.00
2023-05-05T09:56:57.670Z,9.00
2023-05-05T09:59:26.474Z,6.70
2023-05-05T10:02:11.850Z,7.30
2023-05-05T10:04:40.910Z,8.00
2023-05-05T10:07:24.351Z,6.10
2023-05-05T10:09:53.096Z,5.60
2023-05-05T10:12:21.788Z,5.40
2023-05-05T10:14:55.730Z,9.10
2023-05-05T10:17:28.639Z,4.40
2023-05-05T10:20:00.861Z,4.10
2023-05-05T10:22:35.073Z,6.10
2023-05-05T10:25:13.707Z,9.50
2023-05-05T10:27:53.256Z,4.60
2023-05-05T10:30:31.668Z,4.60
2023-05-05T10:33:32.087Z,4.90
2023-05-05T10:36:06.729Z,6.00
2023-05-05T10:38:36.258Z,4.20
2023-05-05T10:41:06.223Z,3.80
2023-05-05T10:43:34.767Z,3.40
2023-05-05T10:46:03.586Z,6.70
2023-05-05T10:48:43.325Z,3.60
2023-05-05T10:51:41.325Z,10.90
2023-05-05T10:54:21.356Z,7.20
2023-05-05T10:56:51.351Z,6.90
2023-05-05T10:59:38.512Z,6.20
2023-05-05T11:02:30.278Z,5.60
2023-05-05T11:05:21.440Z,3.70
2023-05-05T11:07:52.010Z,6.80
2023-05-05T11:10:21.322Z,4.70
2023-05-05T11:12:57.951Z,4.80
2023-05-05T11:15:26.526Z,7.90
2023-05-05T11:18:01.143Z,7.90
2023-05-05T11:20:37.275Z,5.40
2023-05-05T11:23:05.973Z,5.90
2023-05-05T11:25:38.256Z,7.80
2023-05-05T11:28:08.659Z,7.30
2023-05-05T11:30:58.841Z,6.40
2023-05-05T11:33:38.345Z,4.50
2023-05-05T11:36:10.003Z,3.70
2023-05-05T11:39:26.564Z,7.00
2023-05-05T11:42:18.171Z,5.10
2023-05-05T11:44:47.047Z,6.60
2023-05-05T11:47:16.817Z,3.70
2023-05-05T11:49:45.754Z,5.90
2023-05-05T11:52:15.545Z,6.10
2023-05-05T11:54:50.309Z,5.60
2023-05-05T11:57:27.542Z,5.40
2023-05-05T12:00:01.725Z,6.60
2023-05-05T12:02:33.496Z,5.00
2023-05-05T12:05:02.947Z,6.80
2023-05-05T12:07:33.699Z,7.90
2023-05-05T12:10:02.304Z,7.90
2023-05-05T12:12:36.255Z,6.20
2023-05-05T12:15:07.812Z,6.50
2023-05-05T12:17:46.130Z,8.50
2023-05-05T12:20:15.035Z,6.20
2023-05-05T12:22:45.005Z,3.10
2023-05-05T12:25:13.642Z,4.60
2023-05-05T12:27:52.250Z,4.30
2023-05-05T12:30:22.990Z,6.00
2023-05-05T12:33:04.992Z,6.40
2023-05-05T12:35:34.967Z,7.30
2023-05-05T12:38:04.232Z,4.70
2023-05-05T12:40:52.000Z,6.10
2023-05-05T12:43:33.213Z,7.50
2023-05-05T12:46:10.436Z,4.90
2023-05-05T12:48:44.965Z,3.60
2023-05-05T12:51:16.236Z,4.40
2023-05-05T12:53:50.560Z,4.20
2023-05-05T12:56:46.820Z,7.10
2023-05-05T12:59:21.496Z,26.80
2023-05-05T13:01:51.121Z,6.00
2023-05-05T13:04:23.148Z,9.20
2023-05-05T13:07:11.944Z,4.80
2023-05-05T13:09:41.589Z,4.00
2023-05-05T13:12:13.370Z,11.20
2023-05-05T13:14:42.164Z,4.30
2023-05-05T13:17:12.809Z,7.80
2023-05-05T13:19:46.630Z,5.70
2023-05-05T13:22:15.732Z,7.00
2023-05-05T13:24:51.699Z,6.10
2023-05-05T13:27:21.477Z,6.60
2023-05-05T13:29:50.208Z,6.40
2023-05-05T13:32:18.737Z,5.70
2023-05-05T13:34:47.490Z,5.30
2023-05-05T13:37:16.540Z,15.90
2023-05-05T13:39:45.396Z,14.90
2023-05-05T13:42:13.946Z,8.90
2023-05-05T13:44:42.530Z,9.50
2023-05-05T13:47:11.291Z,8.10
2023-05-05T13:49:40.114Z,7.90
2023-05-05T13:52:08.799Z,9.40
2023-05-05T13:54:37.732Z,4.70
2023-05-05T13:57:08.138Z,5.10
2023-05-05T13:59:36.996Z,5.20
2023-05-05T14:02:05.630Z,9.80
2023-05-05T14:04:34.332Z,9.70
2023-05-05T14:07:05.004Z,11.50
2023-05-05T14:09:33.673Z,6.20
2023-05-05T14:12:03.664Z,10.10
2023-05-05T14:14:32.331Z,10.60
2023-05-05T14:17:01.211Z,12.10
2023-05-05T14:19:30.094Z,6.00
2023-05-05T14:21:58.680Z,5.40
2023-05-05T14:24:27.347Z,10.40
2023-05-05T14:26:56.157Z,13.00
2023-05-05T14:29:24.908Z,10.90
2023-05-05T14:31:53.656Z,11.40
2023-05-05T14:34:22.373Z,7.30
2023-05-05T14:36:51.040Z,5.40
2023-05-05T14:39:19.701Z,6.70
2023-05-05T14:41:48.365Z,12.20
2023-05-05T14:44:16.946Z,11.70
2023-05-05T14:46:46.217Z,7.40
2023-05-05T14:49:15.503Z,7.50
2023-05-05T14:51:44.086Z,8.80
2023-05-05T14:54:26.861Z,6.40
2023-05-05T14:56:57.023Z,7.50
2023-05-05T14:59:26.382Z,8.70
2023-05-05T15:01:56.408Z,8.60
2023-05-05T15:04:25.097Z,9.20
2023-05-05T15:06:53.810Z,9.90
2023-05-05T15:09:22.381Z,8.30
2023-05-05T15:11:51.040Z,9.00
2023-05-05T15:14:19.772Z,10.50
2023-05-05T15:16:48.436Z,6.00
2023-05-05T15:19:17.061Z,7.00
2023-05-05T15:21:45.804Z,5.20
2023-05-05T15:24:14.593Z,7.60
2023-05-05T15:26:43.320Z,5.30
2023-05-05T15:29:11.932Z,10.80
2023-05-05T15:31:41.677Z,7.70
2023-05-05T15:34:10.420Z,8.60
2023-05-05T15:36:39.550Z,4.80
2023-05-05T15:39:08.375Z,5.70
2023-05-05T15:41:36.952Z,11.30
2023-05-05T15:44:05.851Z,4.40
2023-05-05T15:46:34.813Z,5.00
2023-05-05T15:49:03.642Z,4.20
2023-05-05T15:51:32.499Z,4.50
2023-05-05T15:54:01.280Z,6.00
2023-05-05T15:56:30.299Z,4.90
2023-05-05T15:58:58.865Z,4.60
2023-05-05T16:01:27.485Z,4.40
2023-05-05T16:03:58.059Z,9.00
2023-05-05T16:06:27.611Z,5.30
2023-05-05T16:08:58.854Z,4.40
2023-05-05T16:11:27.638Z,5.90
2023-05-05T16:13:56.547Z,3.90
2023-05-05T16:16:25.416Z,5.70
2023-05-05T16:18:54.011Z,7.70
2023-05-05T16:21:22.803Z,6.30
2023-05-05T16:23:51.650Z,6.40
2023-05-05T16:26:20.338Z,6.80
2023-05-05T16:28:48.855Z,7.00
2023-05-05T16:31:17.475Z,3.90
2023-05-05T16:33:46.162Z,6.10
2023-05-05T16:36:14.861Z,10.80
2023-05-05T16:38:44.245Z,7.00
2023-05-05T16:41:13.004Z,9.70
2023-05-05T16:43:41.646Z,5.30
2023-05-05T16:46:10.549Z,9.50
2023-05-05T16:48:39.273Z,5.80
2023-05-05T16:51:07.972Z,8.50
2023-05-05T16:53:36.696Z,7.50
2023-05-05T16:56:05.925Z,7.40
2023-05-05T16:58:34.570Z,4.60
2023-05-05T17:01:04.340Z,7.40
2023-05-05T17:03:33.410Z,4.60
2023-05-05T17:06:02.042Z,4.30
2023-05-05T17:08:30.889Z,6.70
2023-05-05T17:10:59.453Z,13.60
2023-05-05T17:13:28.183Z,8.00
2023-05-05T17:15:57.438Z,12.10
2023-05-05T17:18:26.125Z,10.40
2023-05-05T17:20:54.954Z,8.40
2023-05-05T17:23:23.517Z,7.80
2023-05-05T17:25:52.122Z,9.00
2023-05-05T17:28:20.785Z,14.10
2023-05-05T17:30:49.572Z,14.10
2023-05-05T17:33:21.929Z,8.30
2023-05-05T17:35:50.693Z,13.00
2023-05-05T17:38:19.677Z,12.10
2023-05-05T17:40:48.345Z,9.80
2023-05-05T17:43:17.054Z,12.20
2023-05-05T17:45:46.879Z,22.40
2023-05-05T17:48:15.693Z,21.70
2023-05-05T17:50:44.366Z,15.20
2023-05-05T17:53:13.004Z,17.70
2023-05-05T17:55:46.104Z,22.40
2023-05-05T17:58:14.939Z,21.40
2023-05-05T18:00:43.698Z,29.50
2023-05-05T18:03:12.583Z,29.70
2023-05-05T18:05:41.498Z,27.90
2023-05-05T18:08:10.290Z,25.90
2023-05-05T18:10:38.938Z,31.20
2023-05-05T18:13:08.008Z,29.70
2023-05-05T18:15:36.810Z,25.70
2023-05-05T18:18:05.673Z,26.20
2023-05-05T18:20:34.375Z,31.90
2023-05-05T18:23:03.103Z,26.60
2023-05-05T18:25:32.581Z,24.30
2023-05-05T18:28:01.189Z,30.70
2023-05-05T18:30:30.120Z,18.30
2023-05-05T18:32:58.751Z,20.70
2023-05-05T18:35:28.327Z,24.30
2023-05-05T18:37:56.952Z,22.60
2023-05-05T18:40:25.579Z,17.60
2023-05-05T18:42:54.241Z,17.40
2023-05-05T18:45:23.270Z,13.60
2023-05-05T18:47:52.426Z,15.10
2023-05-05T18:50:21.123Z,13.20
2023-05-05T18:52:49.776Z,18.60
2023-05-05T18:55:18.806Z,16.40
2023-05-05T18:57:47.645Z,26.60
2023-05-05T19:00:16.765Z,23.10
2023-05-05T19:02:45.526Z,19.20
2023-05-05T19:05:14.147Z,22.50
2023-05-05T19:07:42.819Z,24.20
2023-05-05T19:10:11.957Z,22.50
2023-05-05T19:12:40.549Z,28.30
2023-05-05T19:15:09.688Z,32.10
2023-05-05T19:17:38.504Z,31.70
2023-05-05T19:20:09.105Z,28.00
2023-05-05T19:22:37.868Z,25.40
2023-05-05T19:25:06.791Z,27.80
2023-05-05T19:27:37.018Z,26.00
2023-05-05T19:30:07.259Z,24.90
2023-05-05T19:32:36.302Z,27.20
2023-05-05T19:35:08.402Z,22.30
2023-05-05T19:37:37.148Z,27.80
2023-05-05T19:40:06.902Z,22.90
2023-05-05T19:42:35.780Z,24.90
2023-05-05T19:45:04.928Z,20.00
2023-05-05T19:47:33.701Z,22.80
2023-05-05T19:50:02.381Z,22.80
2023-05-05T19:52:31.254Z,22.80
2023-05-05T19:55:00.038Z,23.50
2023-05-05T19:57:28.437Z,19.80
2023-05-05T19:59:57.031Z,23.20
2023-05-05T20:02:27.323Z,27.20
2023-05-05T20:04:56.342Z,26.50
2023-05-05T20:07:24.985Z,22.70
2023-05-05T20:09:53.758Z,18.00
2023-05-05T20:12:23.836Z,27.00
2023-05-05T20:14:52.527Z,21.00
2023-05-05T20:17:21.543Z,18.10
2023-05-05T20:19:50.089Z,18.40
2023-05-05T20:22:18.732Z,32.00
2023-05-05T20:24:47.364Z,26.00
2023-05-05T20:27:16.049Z,22.60
2023-05-05T20:29:44.680Z,21.80
2023-05-05T20:32:13.412Z,25.90
2023-05-05T20:37:52.160Z,27.70
2023-05-05T20:40:20.960Z,24.00
2023-05-05T20:42:49.546Z,18.90
2023-05-05T20:45:18.204Z,22.00
2023-05-05T20:47:46.865Z,21.40
2023-05-05T20:53:37.788Z,20.00
2023-05-05T20:56:08.985Z,31.30
2023-05-05T20:58:37.945Z,21.60
2023-05-05T21:01:06.640Z,28.80
2023-05-05T21:03:36.683Z,22.90
2023-05-05T21:06:05.618Z,20.70
2023-05-05T21:08:34.154Z,23.80
2023-05-05T21:11:03.334Z,21.20
2023-05-05T21:13:32.231Z,22.00
2023-05-05T21:16:00.867Z,22.60
2023-05-05T21:18:29.630Z,26.60
2023-05-05T21:20:58.995Z,20.50
2023-05-05T21:23:27.585Z,23.90
2023-05-05T21:25:56.545Z,22.30
2023-05-05T21:28:28.121Z,23.00
2023-05-05T21:31:19.764Z,22.10
2023-05-05T21:33:47.010Z,21.30
2023-05-05T21:36:17.699Z,25.10
2023-05-05T21:38:46.441Z,27.80
2023-05-05T21:41:15.180Z,25.10
2023-05-05T21:43:43.692Z,18.40
2023-05-05T21:46:12.448Z,22.20
2023-05-05T21:48:41.616Z,21.50
2023-05-05T21:51:10.296Z,20.70
2023-05-05T21:53:40.296Z,21.40
2023-05-05T21:56:09.083Z,20.80
2023-05-05T21:58:37.515Z,21.60
2023-05-05T22:01:06.155Z,27.30
2023-05-05T22:03:35.850Z,18.90
2023-05-05T22:06:04.754Z,19.40
2023-05-05T22:08:33.284Z,19.70
2023-05-05T22:11:02.197Z,20.20
2023-05-05T22:13:30.739Z,17.30
2023-05-05T22:15:59.440Z,20.10
2023-05-05T22:18:28.012Z,24.10
2023-05-05T22:20:56.566Z,20.60
2023-05-05T22:23:25.315Z,22.40
2023-05-05T22:25:54.297Z,22.80
2023-05-05T22:28:23.403Z,19.60
2023-05-05T22:30:51.956Z,22.00
2023-05-05T22:33:20.840Z,20.60
2023-05-05T22:35:49.405Z,21.10
2023-05-05T22:38:18.358Z,19.80
2023-05-05T22:40:47.197Z,21.70
2023-05-05T22:43:15.836Z,18.70
2023-05-05T22:45:44.630Z,16.80
2023-05-05T22:48:13.543Z,24.40
2023-05-05T22:50:42.331Z,20.30
2023-05-05T22:53:10.927Z,18.10
2023-05-05T22:55:39.508Z,20.80
2023-05-05T22:58:08.030Z,22.20
2023-05-05T23:00:36.633Z,19.70
2023-05-05T23:03:05.267Z,22.60
2023-05-05T23:05:34.647Z,19.40
2023-05-05T23:08:03.559Z,22.10
2023-05-05T23:10:32.068Z,25.20
2023-05-05T23:13:00.719Z,24.70
2023-05-05T23:15:30.261Z,19.60
2023-05-05T23:17:59.022Z,17.20
2023-05-05T23:20:27.994Z,17.70
2023-05-05T23:22:56.688Z,18.30
2023-05-05T23:25:25.361Z,19.30
2023-05-05T23:27:53.920Z,19.00
2023-05-05T23:30:23.291Z,17.30
2023-05-05T23:32:52.039Z,17.80
2023-05-05T23:35:20.639Z,19.50
2023-05-05T23:37:49.953Z,22.80
2023-05-05T23:40:18.506Z,16.20
2023-05-05T23:42:47.103Z,18.40
2023-05-05T23:45:18.088Z,16.50
2023-05-05T23:50:16.566Z,18.50
2023-05-05T23:52:45.190Z,16.90
2023-05-05T23:55:14.588Z,19.10
2023-05-05T23:57:43.129Z,19.20
